sensor_id;sensor_type;location;lat;lon;timestamp;P1;durP1;ratioP1;P2;durP2;ratioP2
13208;SDS011;6669;42.678;23.332;2023-03-21T00:00:52;9.68;;;5.75;;
13208;SDS011;6669;42.678;23.332;2023-03-21T00:03:21;7.22;;;5.38;;
13208;SDS011;6669;42.678;23.332;2023-03-21T00:05:49;12.73;;;6.75;;
13208;SDS011;6669;42.678;23.332;2023-03-21T00:08:21;12.48;;;8.07;;
13208;SDS011;6669;42.678;23.332;2023-03-21T00:10:54;15.90;;;10.00;;
13208;SDS011;6669;42.678;23.332;2023-03-21T00:13:24;14.93;;;9.73;;
13208;SDS011;6669;42.678;23.332;2023-03-21T00:15:53;15.50;;;9.73;;
13208;SDS011;6669;42.678;23.332;2023-03-21T00:18:41;14.57;;;9.65;;
13208;SDS011;6669;42.678;23.332;2023-03-21T00:21:12;16.50;;;10.27;;
13208;SDS011;6669;42.678;23.332;2023-03-21T00:24:03;17.60;;;9.77;;
13208;SDS011;6669;42.678;23.332;2023-03-21T00:26:33;15.60;;;9.48;;
13208;SDS011;6669;42.678;23.332;2023-03-21T00:29:03;15.20;;;10.53;;
13208;SDS011;6669;42.678;23.332;2023-03-21T00:31:31;13.90;;;9.83;;
13208;SDS011;6669;42.678;23.332;2023-03-21T00:34:00;15.40;;;9.37;;
13208;SDS011;6669;42.678;23.332;2023-03-21T00:36:28;14.10;;;9.20;;
13208;SDS011;6669;42.678;23.332;2023-03-21T00:38:56;13.53;;;9.03;;
13208;SDS011;6669;42.678;23.332;2023-03-21T00:41:27;13.50;;;9.43;;
13208;SDS011;6669;42.678;23.332;2023-03-21T00:44:11;14.73;;;9.13;;
13208;SDS011;6669;42.678;23.332;2023-03-21T00:46:41;12.27;;;8.60;;
13208;SDS011;6669;42.678;23.332;2023-03-21T00:49:25;13.20;;;8.87;;
13208;SDS011;6669;42.678;23.332;2023-03-21T00:51:54;12.60;;;8.30;;
13208;SDS011;6669;42.678;23.332;2023-03-21T00:54:40;14.57;;;9.00;;
13208;SDS011;6669;42.678;23.332;2023-03-21T00:57:09;12.60;;;8.80;;
13208;SDS011;6669;42.678;23.332;2023-03-21T00:59:37;13.57;;;8.80;;
13208;SDS011;6669;42.678;23.332;2023-03-21T01:02:05;15.37;;;10.43;;
13208;SDS011;6669;42.678;23.332;2023-03-21T01:04:34;13.53;;;8.40;;
13208;SDS011;6669;42.678;23.332;2023-03-21T01:07:02;12.07;;;9.10;;
13208;SDS011;6669;42.678;23.332;2023-03-21T01:09:30;12.05;;;8.50;;
13208;SDS011;6669;42.678;23.332;2023-03-21T01:11:58;12.13;;;8.43;;
13208;SDS011;6669;42.678;23.332;2023-03-21T01:14:27;12.53;;;8.53;;
13208;SDS011;6669;42.678;23.332;2023-03-21T01:16:55;10.70;;;8.43;;
13208;SDS011;6669;42.678;23.332;2023-03-21T01:19:23;15.45;;;9.52;;
13208;SDS011;6669;42.678;23.332;2023-03-21T01:22:09;9.83;;;7.70;;
13208;SDS011;6669;42.678;23.332;2023-03-21T01:24:38;10.73;;;8.23;;
13208;SDS011;6669;42.678;23.332;2023-03-21T01:27:19;12.57;;;8.07;;
13208;SDS011;6669;42.678;23.332;2023-03-21T01:29:48;12.07;;;8.33;;
13208;SDS011;6669;42.678;23.332;2023-03-21T01:32:16;13.10;;;8.13;;
13208;SDS011;6669;42.678;23.332;2023-03-21T01:34:44;9.83;;;8.10;;
13208;SDS011;6669;42.678;23.332;2023-03-21T01:37:12;11.10;;;7.73;;
13208;SDS011;6669;42.678;23.332;2023-03-21T01:39:43;11.30;;;7.67;;
13208;SDS011;6669;42.678;23.332;2023-03-21T01:42:11;10.80;;;7.53;;
13208;SDS011;6669;42.678;23.332;2023-03-21T01:44:54;9.87;;;6.90;;
13208;SDS011;6669;42.678;23.332;2023-03-21T01:47:24;9.03;;;7.07;;
13208;SDS011;6669;42.678;23.332;2023-03-21T01:49:53;10.07;;;7.20;;
13208;SDS011;6669;42.678;23.332;2023-03-21T01:52:24;10.43;;;7.13;;
13208;SDS011;6669;42.678;23.332;2023-03-21T01:55:03;7.50;;;6.33;;
13208;SDS011;6669;42.678;23.332;2023-03-21T01:57:38;8.97;;;6.80;;
13208;SDS011;6669;42.678;23.332;2023-03-21T02:00:31;9.00;;;6.83;;
13208;SDS011;6669;42.678;23.332;2023-03-21T02:03:04;8.53;;;7.00;;
13208;SDS011;6669;42.678;23.332;2023-03-21T02:05:47;8.50;;;6.33;;
13208;SDS011;6669;42.678;23.332;2023-03-21T02:08:18;8.43;;;6.40;;
13208;SDS011;6669;42.678;23.332;2023-03-21T02:11:03;10.80;;;6.87;;
13208;SDS011;6669;42.678;23.332;2023-03-21T02:13:32;8.90;;;6.90;;
13208;SDS011;6669;42.678;23.332;2023-03-21T02:16:04;8.90;;;6.43;;
13208;SDS011;6669;42.678;23.332;2023-03-21T02:18:40;11.73;;;6.60;;
13208;SDS011;6669;42.678;23.332;2023-03-21T02:21:18;7.63;;;6.57;;
13208;SDS011;6669;42.678;23.332;2023-03-21T02:24:15;8.00;;;6.17;;
13208;SDS011;6669;42.678;23.332;2023-03-21T02:27:14;8.23;;;6.13;;
13208;SDS011;6669;42.678;23.332;2023-03-21T02:30:10;9.70;;;6.33;;
13208;SDS011;6669;42.678;23.332;2023-03-21T02:33:13;7.00;;;5.67;;
13208;SDS011;6669;42.678;23.332;2023-03-21T02:36:08;8.00;;;5.80;;
13208;SDS011;6669;42.678;23.332;2023-03-21T02:38:48;7.93;;;6.37;;
13208;SDS011;6669;42.678;23.332;2023-03-21T02:41:24;9.77;;;5.60;;
13208;SDS011;6669;42.678;23.332;2023-03-21T02:44:06;11.20;;;6.57;;
13208;SDS011;6669;42.678;23.332;2023-03-21T02:46:44;9.70;;;7.30;;
13208;SDS011;6669;42.678;23.332;2023-03-21T02:49:30;8.57;;;5.70;;
13208;SDS011;6669;42.678;23.332;2023-03-21T02:52:08;7.87;;;6.47;;
13208;SDS011;6669;42.678;23.332;2023-03-21T02:54:58;7.87;;;6.40;;
13208;SDS011;6669;42.678;23.332;2023-03-21T02:57:28;9.37;;;6.93;;
13208;SDS011;6669;42.678;23.332;2023-03-21T03:00:09;7.10;;;6.33;;
13208;SDS011;6669;42.678;23.332;2023-03-21T03:02:42;10.07;;;6.13;;
13208;SDS011;6669;42.678;23.332;2023-03-21T03:05:14;9.63;;;6.40;;
13208;SDS011;6669;42.678;23.332;2023-03-21T03:07:51;11.80;;;6.60;;
13208;SDS011;6669;42.678;23.332;2023-03-21T03:10:35;8.13;;;6.10;;
13208;SDS011;6669;42.678;23.332;2023-03-21T03:13:14;9.90;;;5.90;;
13208;SDS011;6669;42.678;23.332;2023-03-21T03:15:59;6.83;;;6.03;;
13208;SDS011;6669;42.678;23.332;2023-03-21T03:18:39;9.07;;;6.17;;
13208;SDS011;6669;42.678;23.332;2023-03-21T03:21:13;10.00;;;6.70;;
13208;SDS011;6669;42.678;23.332;2023-03-21T03:23:47;8.17;;;6.43;;
13208;SDS011;6669;42.678;23.332;2023-03-21T03:26:22;8.60;;;6.47;;
13208;SDS011;6669;42.678;23.332;2023-03-21T03:28:54;8.33;;;6.17;;
13208;SDS011;6669;42.678;23.332;2023-03-21T03:31:28;9.07;;;6.47;;
13208;SDS011;6669;42.678;23.332;2023-03-21T03:34:01;7.97;;;5.70;;
13208;SDS011;6669;42.678;23.332;2023-03-21T03:36:35;6.17;;;5.40;;
13208;SDS011;6669;42.678;23.332;2023-03-21T03:39:08;8.47;;;6.00;;
13208;SDS011;6669;42.678;23.332;2023-03-21T03:41:43;6.87;;;5.67;;
13208;SDS011;6669;42.678;23.332;2023-03-21T03:44:34;7.83;;;5.77;;
13208;SDS011;6669;42.678;23.332;2023-03-21T03:47:04;10.30;;;5.47;;
13208;SDS011;6669;42.678;23.332;2023-03-21T03:49:37;8.23;;;5.07;;
13208;SDS011;6669;42.678;23.332;2023-03-21T03:52:11;6.70;;;5.73;;
13208;SDS011;6669;42.678;23.332;2023-03-21T03:54:43;8.00;;;5.50;;
13208;SDS011;6669;42.678;23.332;2023-03-21T03:57:15;9.33;;;5.53;;
13208;SDS011;6669;42.678;23.332;2023-03-21T03:59:44;7.53;;;5.10;;
13208;SDS011;6669;42.678;23.332;2023-03-21T04:02:13;6.13;;;5.03;;
13208;SDS011;6669;42.678;23.332;2023-03-21T04:04:42;6.47;;;5.63;;
13208;SDS011;6669;42.678;23.332;2023-03-21T04:07:10;9.70;;;5.83;;
13208;SDS011;6669;42.678;23.332;2023-03-21T04:09:39;8.40;;;5.03;;
13208;SDS011;6669;42.678;23.332;2023-03-21T04:12:10;8.33;;;5.63;;
13208;SDS011;6669;42.678;23.332;2023-03-21T04:14:40;6.63;;;5.33;;
13208;SDS011;6669;42.678;23.332;2023-03-21T04:17:12;9.83;;;6.20;;
13208;SDS011;6669;42.678;23.332;2023-03-21T04:19:41;7.47;;;6.03;;
13208;SDS011;6669;42.678;23.332;2023-03-21T04:22:09;10.87;;;6.40;;
13208;SDS011;6669;42.678;23.332;2023-03-21T04:24:37;7.63;;;5.77;;
13208;SDS011;6669;42.678;23.332;2023-03-21T04:27:05;8.00;;;5.70;;
13208;SDS011;6669;42.678;23.332;2023-03-21T04:29:33;9.13;;;5.53;;
13208;SDS011;6669;42.678;23.332;2023-03-21T04:32:03;9.13;;;5.63;;
13208;SDS011;6669;42.678;23.332;2023-03-21T04:34:31;10.10;;;5.70;;
13208;SDS011;6669;42.678;23.332;2023-03-21T04:37:05;9.50;;;6.03;;
13208;SDS011;6669;42.678;23.332;2023-03-21T04:39:36;9.03;;;5.57;;
13208;SDS011;6669;42.678;23.332;2023-03-21T04:42:04;7.67;;;5.40;;
13208;SDS011;6669;42.678;23.332;2023-03-21T04:44:32;7.00;;;5.67;;
13208;SDS011;6669;42.678;23.332;2023-03-21T04:47:00;7.10;;;5.60;;
13208;SDS011;6669;42.678;23.332;2023-03-21T04:49:30;8.73;;;5.30;;
13208;SDS011;6669;42.678;23.332;2023-03-21T04:51:58;7.80;;;4.93;;
13208;SDS011;6669;42.678;23.332;2023-03-21T04:54:26;9.77;;;5.20;;
13208;SDS011;6669;42.678;23.332;2023-03-21T04:56:54;7.53;;;5.57;;
13208;SDS011;6669;42.678;23.332;2023-03-21T04:59:22;10.93;;;6.03;;
13208;SDS011;6669;42.678;23.332;2023-03-21T05:01:51;6.30;;;4.87;;
13208;SDS011;6669;42.678;23.332;2023-03-21T05:04:22;13.00;;;6.23;;
13208;SDS011;6669;42.678;23.332;2023-03-21T05:06:53;9.03;;;5.93;;
13208;SDS011;6669;42.678;23.332;2023-03-21T05:09:22;10.67;;;6.47;;
13208;SDS011;6669;42.678;23.332;2023-03-21T05:11:50;14.93;;;7.40;;
13208;SDS011;6669;42.678;23.332;2023-03-21T05:14:19;10.03;;;6.30;;
13208;SDS011;6669;42.678;23.332;2023-03-21T05:16:48;13.30;;;6.50;;
13208;SDS011;6669;42.678;23.332;2023-03-21T05:19:22;11.03;;;6.53;;
13208;SDS011;6669;42.678;23.332;2023-03-21T05:22:03;10.50;;;6.27;;
13208;SDS011;6669;42.678;23.332;2023-03-21T05:24:32;12.97;;;6.80;;
13208;SDS011;6669;42.678;23.332;2023-03-21T05:27:00;10.83;;;5.57;;
13208;SDS011;6669;42.678;23.332;2023-03-21T05:29:29;8.63;;;5.50;;
13208;SDS011;6669;42.678;23.332;2023-03-21T05:31:58;7.53;;;4.77;;
13208;SDS011;6669;42.678;23.332;2023-03-21T05:34:27;8.53;;;5.03;;
13208;SDS011;6669;42.678;23.332;2023-03-21T05:36:57;11.63;;;6.37;;
13208;SDS011;6669;42.678;23.332;2023-03-21T05:39:26;10.77;;;6.47;;
13208;SDS011;6669;42.678;23.332;2023-03-21T05:41:54;9.43;;;6.60;;
13208;SDS011;6669;42.678;23.332;2023-03-21T05:44:22;8.50;;;5.73;;
13208;SDS011;6669;42.678;23.332;2023-03-21T05:46:50;8.43;;;5.43;;
13208;SDS011;6669;42.678;23.332;2023-03-21T05:49:18;8.13;;;4.83;;
13208;SDS011;6669;42.678;23.332;2023-03-21T05:51:48;9.47;;;5.40;;
13208;SDS011;6669;42.678;23.332;2023-03-21T05:54:16;8.93;;;5.83;;
13208;SDS011;6669;42.678;23.332;2023-03-21T05:56:45;6.43;;;4.93;;
13208;SDS011;6669;42.678;23.332;2023-03-21T05:59:13;7.97;;;5.17;;
13208;SDS011;6669;42.678;23.332;2023-03-21T06:01:41;8.37;;;5.00;;
13208;SDS011;6669;42.678;23.332;2023-03-21T06:04:09;5.77;;;4.53;;
13208;SDS011;6669;42.678;23.332;2023-03-21T06:06:37;7.97;;;4.40;;
13208;SDS011;6669;42.678;23.332;2023-03-21T06:09:06;7.17;;;4.40;;
13208;SDS011;6669;42.678;23.332;2023-03-21T06:11:37;7.20;;;5.60;;
13208;SDS011;6669;42.678;23.332;2023-03-21T06:14:09;6.97;;;4.83;;
13208;SDS011;6669;42.678;23.332;2023-03-21T06:16:37;6.70;;;5.20;;
13208;SDS011;6669;42.678;23.332;2023-03-21T06:19:05;7.13;;;5.00;;
13208;SDS011;6669;42.678;23.332;2023-03-21T06:21:33;8.10;;;5.47;;
13208;SDS011;6669;42.678;23.332;2023-03-21T06:24:01;12.23;;;6.22;;
13208;SDS011;6669;42.678;23.332;2023-03-21T06:26:29;10.17;;;6.53;;
13208;SDS011;6669;42.678;23.332;2023-03-21T06:28:57;12.75;;;7.15;;
13208;SDS011;6669;42.678;23.332;2023-03-21T06:31:27;12.27;;;6.93;;
13208;SDS011;6669;42.678;23.332;2023-03-21T06:33:55;9.52;;;6.45;;
13208;SDS011;6669;42.678;23.332;2023-03-21T06:36:23;11.93;;;6.75;;
13208;SDS011;6669;42.678;23.332;2023-03-21T06:38:51;10.90;;;6.57;;
13208;SDS011;6669;42.678;23.332;2023-03-21T06:41:19;10.18;;;6.40;;
13208;SDS011;6669;42.678;23.332;2023-03-21T06:43:47;9.10;;;7.13;;
13208;SDS011;6669;42.678;23.332;2023-03-21T06:46:15;8.60;;;6.03;;
13208;SDS011;6669;42.678;23.332;2023-03-21T06:48:45;7.53;;;5.93;;
13208;SDS011;6669;42.678;23.332;2023-03-21T06:51:13;8.57;;;5.97;;
13208;SDS011;6669;42.678;23.332;2023-03-21T06:53:41;14.27;;;6.85;;
13208;SDS011;6669;42.678;23.332;2023-03-21T06:56:11;7.55;;;5.75;;
13208;SDS011;6669;42.678;23.332;2023-03-21T06:58:40;10.43;;;7.00;;
13208;SDS011;6669;42.678;23.332;2023-03-21T07:01:08;8.75;;;6.57;;
13208;SDS011;6669;42.678;23.332;2023-03-21T07:03:36;10.93;;;7.30;;
13208;SDS011;6669;42.678;23.332;2023-03-21T07:06:07;8.52;;;6.75;;
13208;SDS011;6669;42.678;23.332;2023-03-21T07:08:37;11.57;;;7.57;;
13208;SDS011;6669;42.678;23.332;2023-03-21T07:11:06;11.82;;;7.13;;
13208;SDS011;6669;42.678;23.332;2023-03-21T07:13:36;13.02;;;8.38;;
13208;SDS011;6669;42.678;23.332;2023-03-21T07:16:04;15.48;;;8.38;;
13208;SDS011;6669;42.678;23.332;2023-03-21T07:18:33;14.48;;;9.02;;
13208;SDS011;6669;42.678;23.332;2023-03-21T07:21:01;12.55;;;10.02;;
13208;SDS011;6669;42.678;23.332;2023-03-21T07:23:30;16.88;;;10.70;;
13208;SDS011;6669;42.678;23.332;2023-03-21T07:25:58;19.63;;;11.27;;
13208;SDS011;6669;42.678;23.332;2023-03-21T07:28:26;20.88;;;13.15;;
13208;SDS011;6669;42.678;23.332;2023-03-21T07:30:57;21.73;;;13.30;;
13208;SDS011;6669;42.678;23.332;2023-03-21T07:33:26;17.35;;;12.43;;
13208;SDS011;6669;42.678;23.332;2023-03-21T07:35:55;17.40;;;12.55;;
13208;SDS011;6669;42.678;23.332;2023-03-21T07:38:24;17.42;;;11.90;;
13208;SDS011;6669;42.678;23.332;2023-03-21T07:40:54;19.48;;;11.95;;
13208;SDS011;6669;42.678;23.332;2023-03-21T07:43:22;17.15;;;10.60;;
13208;SDS011;6669;42.678;23.332;2023-03-21T07:45:49;16.38;;;10.27;;
13208;SDS011;6669;42.678;23.332;2023-03-21T07:48:18;16.30;;;10.43;;
13208;SDS011;6669;42.678;23.332;2023-03-21T07:50:47;16.15;;;10.50;;
13208;SDS011;6669;42.678;23.332;2023-03-21T07:53:16;15.75;;;9.90;;
13208;SDS011;6669;42.678;23.332;2023-03-21T07:55:44;15.35;;;10.48;;
13208;SDS011;6669;42.678;23.332;2023-03-21T07:58:17;15.65;;;10.52;;
13208;SDS011;6669;42.678;23.332;2023-03-21T08:00:45;12.73;;;8.82;;
13208;SDS011;6669;42.678;23.332;2023-03-21T08:03:14;13.50;;;8.57;;
13208;SDS011;6669;42.678;23.332;2023-03-21T08:05:42;13.63;;;9.02;;
13208;SDS011;6669;42.678;23.332;2023-03-21T08:08:11;16.38;;;9.15;;
13208;SDS011;6669;42.678;23.332;2023-03-21T08:10:40;12.23;;;9.10;;
13208;SDS011;6669;42.678;23.332;2023-03-21T08:13:09;12.88;;;8.45;;
13208;SDS011;6669;42.678;23.332;2023-03-21T08:15:38;14.00;;;7.93;;
13208;SDS011;6669;42.678;23.332;2023-03-21T08:18:07;9.90;;;6.97;;
13208;SDS011;6669;42.678;23.332;2023-03-21T08:20:36;9.95;;;7.22;;
13208;SDS011;6669;42.678;23.332;2023-03-21T08:23:04;11.52;;;7.47;;
13208;SDS011;6669;42.678;23.332;2023-03-21T08:25:32;11.10;;;7.85;;
13208;SDS011;6669;42.678;23.332;2023-03-21T08:30:51;9.27;;;6.88;;
13208;SDS011;6669;42.678;23.332;2023-03-21T08:33:19;12.95;;;7.28;;
13208;SDS011;6669;42.678;23.332;2023-03-21T08:35:49;10.13;;;6.75;;
13208;SDS011;6669;42.678;23.332;2023-03-21T08:38:17;12.45;;;6.78;;
13208;SDS011;6669;42.678;23.332;2023-03-21T08:40:45;7.43;;;6.53;;
13208;SDS011;6669;42.678;23.332;2023-03-21T08:43:13;11.98;;;6.10;;
13208;SDS011;6669;42.678;23.332;2023-03-21T08:45:41;7.32;;;5.82;;
13208;SDS011;6669;42.678;23.332;2023-03-21T08:48:10;7.97;;;5.50;;
13208;SDS011;6669;42.678;23.332;2023-03-21T08:50:38;8.93;;;6.22;;
13208;SDS011;6669;42.678;23.332;2023-03-21T08:53:06;8.45;;;5.70;;
13208;SDS011;6669;42.678;23.332;2023-03-21T08:55:34;6.88;;;5.85;;
13208;SDS011;6669;42.678;23.332;2023-03-21T08:58:03;10.15;;;6.00;;
13208;SDS011;6669;42.678;23.332;2023-03-21T09:00:32;8.25;;;5.80;;
13208;SDS011;6669;42.678;23.332;2023-03-21T09:03:00;10.77;;;6.45;;
13208;SDS011;6669;42.678;23.332;2023-03-21T09:05:31;14.15;;;9.57;;
13208;SDS011;6669;42.678;23.332;2023-03-21T09:08:02;11.40;;;7.22;;
13208;SDS011;6669;42.678;23.332;2023-03-21T09:10:31;7.85;;;6.10;;
13208;SDS011;6669;42.678;23.332;2023-03-21T09:13:00;8.48;;;5.88;;
13208;SDS011;6669;42.678;23.332;2023-03-21T09:15:28;9.02;;;6.00;;
13208;SDS011;6669;42.678;23.332;2023-03-21T09:17:57;9.73;;;6.07;;
13208;SDS011;6669;42.678;23.332;2023-03-21T09:20:40;9.35;;;6.05;;
13208;SDS011;6669;42.678;23.332;2023-03-21T09:23:09;8.85;;;5.80;;
13208;SDS011;6669;42.678;23.332;2023-03-21T09:25:38;8.27;;;6.60;;
13208;SDS011;6669;42.678;23.332;2023-03-21T09:28:06;8.23;;;5.90;;
13208;SDS011;6669;42.678;23.332;2023-03-21T09:30:35;8.43;;;6.05;;
13208;SDS011;6669;42.678;23.332;2023-03-21T09:33:04;9.27;;;7.10;;
13208;SDS011;6669;42.678;23.332;2023-03-21T09:35:34;8.70;;;5.93;;
13208;SDS011;6669;42.678;23.332;2023-03-21T09:38:04;8.27;;;5.95;;
13208;SDS011;6669;42.678;23.332;2023-03-21T09:40:38;13.15;;;7.78;;
13208;SDS011;6669;42.678;23.332;2023-03-21T09:43:18;8.70;;;5.88;;
13208;SDS011;6669;42.678;23.332;2023-03-21T09:45:59;10.98;;;6.80;;
13208;SDS011;6669;42.678;23.332;2023-03-21T09:48:35;9.90;;;6.20;;
13208;SDS011;6669;42.678;23.332;2023-03-21T09:51:23;9.38;;;6.05;;
13208;SDS011;6669;42.678;23.332;2023-03-21T09:53:56;9.10;;;6.40;;
13208;SDS011;6669;42.678;23.332;2023-03-21T09:56:27;10.90;;;7.57;;
13208;SDS011;6669;42.678;23.332;2023-03-21T09:58:56;13.80;;;10.68;;
13208;SDS011;6669;42.678;23.332;2023-03-21T10:01:27;9.98;;;6.65;;
13208;SDS011;6669;42.678;23.332;2023-03-21T10:03:59;12.10;;;6.57;;
13208;SDS011;6669;42.678;23.332;2023-03-21T10:06:29;7.85;;;6.22;;
13208;SDS011;6669;42.678;23.332;2023-03-21T10:09:01;9.23;;;6.30;;
13208;SDS011;6669;42.678;23.332;2023-03-21T10:11:35;9.68;;;6.75;;
13208;SDS011;6669;42.678;23.332;2023-03-21T10:14:12;10.48;;;6.78;;
13208;SDS011;6669;42.678;23.332;2023-03-21T10:16:45;10.50;;;7.30;;
13208;SDS011;6669;42.678;23.332;2023-03-21T10:19:17;9.18;;;6.93;;
13208;SDS011;6669;42.678;23.332;2023-03-21T10:21:47;10.40;;;7.55;;
13208;SDS011;6669;42.678;23.332;2023-03-21T10:24:28;11.65;;;7.53;;
13208;SDS011;6669;42.678;23.332;2023-03-21T10:26:58;9.95;;;7.60;;
13208;SDS011;6669;42.678;23.332;2023-03-21T10:29:29;12.15;;;8.05;;
13208;SDS011;6669;42.678;23.332;2023-03-21T10:32:02;10.32;;;7.57;;
13208;SDS011;6669;42.678;23.332;2023-03-21T10:34:32;12.00;;;7.90;;
13208;SDS011;6669;42.678;23.332;2023-03-21T10:37:04;10.25;;;7.88;;
13208;SDS011;6669;42.678;23.332;2023-03-21T10:39:34;9.68;;;7.88;;
13208;SDS011;6669;42.678;23.332;2023-03-21T10:42:05;13.23;;;7.20;;
13208;SDS011;6669;42.678;23.332;2023-03-21T10:44:37;15.93;;;9.93;;
13208;SDS011;6669;42.678;23.332;2023-03-21T10:47:06;10.95;;;7.80;;
13208;SDS011;6669;42.678;23.332;2023-03-21T10:49:36;9.40;;;7.75;;
13208;SDS011;6669;42.678;23.332;2023-03-21T10:52:26;11.15;;;8.23;;
13208;SDS011;6669;42.678;23.332;2023-03-21T10:55:11;11.02;;;7.55;;
13208;SDS011;6669;42.678;23.332;2023-03-21T10:57:47;12.70;;;7.38;;
13208;SDS011;6669;42.678;23.332;2023-03-21T11:00:20;10.98;;;7.05;;
13208;SDS011;6669;42.678;23.332;2023-03-21T11:02:51;9.75;;;6.70;;
13208;SDS011;6669;42.678;23.332;2023-03-21T11:05:21;11.48;;;6.80;;
13208;SDS011;6669;42.678;23.332;2023-03-21T11:07:56;8.63;;;6.65;;
13208;SDS011;6669;42.678;23.332;2023-03-21T11:10:29;10.77;;;5.85;;
13208;SDS011;6669;42.678;23.332;2023-03-21T11:13:01;10.02;;;8.00;;
13208;SDS011;6669;42.678;23.332;2023-03-21T11:15:37;9.25;;;7.38;;
13208;SDS011;6669;42.678;23.332;2023-03-21T11:18:13;5.72;;;5.05;;
13208;SDS011;6669;42.678;23.332;2023-03-21T11:20:47;6.43;;;4.97;;
13208;SDS011;6669;42.678;23.332;2023-03-21T11:23:19;11.77;;;6.13;;
13208;SDS011;6669;42.678;23.332;2023-03-21T11:25:54;7.38;;;5.63;;
13208;SDS011;6669;42.678;23.332;2023-03-21T11:28:31;6.93;;;4.30;;
13208;SDS011;6669;42.678;23.332;2023-03-21T11:31:02;5.75;;;4.10;;
13208;SDS011;6669;42.678;23.332;2023-03-21T11:33:35;6.90;;;4.13;;
13208;SDS011;6669;42.678;23.332;2023-03-21T11:36:06;5.68;;;4.20;;
13208;SDS011;6669;42.678;23.332;2023-03-21T11:38:56;6.68;;;4.55;;
13208;SDS011;6669;42.678;23.332;2023-03-21T11:41:29;7.32;;;3.83;;
13208;SDS011;6669;42.678;23.332;2023-03-21T11:44:00;4.63;;;4.00;;
13208;SDS011;6669;42.678;23.332;2023-03-21T11:46:30;4.53;;;3.67;;
13208;SDS011;6669;42.678;23.332;2023-03-21T11:49:07;7.60;;;4.10;;
13208;SDS011;6669;42.678;23.332;2023-03-21T11:51:38;4.70;;;3.78;;
13208;SDS011;6669;42.678;23.332;2023-03-21T11:54:11;4.15;;;3.75;;
13208;SDS011;6669;42.678;23.332;2023-03-21T11:56:48;5.00;;;3.88;;
13208;SDS011;6669;42.678;23.332;2023-03-21T11:59:25;5.68;;;3.42;;
13208;SDS011;6669;42.678;23.332;2023-03-21T12:02:11;4.22;;;3.03;;
13208;SDS011;6669;42.678;23.332;2023-03-21T12:05:03;4.07;;;3.28;;
13208;SDS011;6669;42.678;23.332;2023-03-21T12:07:41;4.65;;;3.20;;
13208;SDS011;6669;42.678;23.332;2023-03-21T12:13:24;5.57;;;3.53;;
13208;SDS011;6669;42.678;23.332;2023-03-21T12:16:02;5.05;;;3.10;;
13208;SDS011;6669;42.678;23.332;2023-03-21T12:21:30;5.70;;;3.35;;
13208;SDS011;6669;42.678;23.332;2023-03-21T12:24:02;5.18;;;3.85;;
13208;SDS011;6669;42.678;23.332;2023-03-21T12:26:39;4.35;;;3.20;;
13208;SDS011;6669;42.678;23.332;2023-03-21T12:29:17;5.25;;;3.15;;
13208;SDS011;6669;42.678;23.332;2023-03-21T12:32:05;3.30;;;3.00;;
13208;SDS011;6669;42.678;23.332;2023-03-21T12:34:48;4.65;;;4.07;;
13208;SDS011;6669;42.678;23.332;2023-03-21T12:37:31;4.10;;;3.08;;
13208;SDS011;6669;42.678;23.332;2023-03-21T12:40:08;4.15;;;3.17;;
13208;SDS011;6669;42.678;23.332;2023-03-21T12:42:43;4.70;;;3.35;;
13208;SDS011;6669;42.678;23.332;2023-03-21T12:45:21;6.80;;;3.30;;
13208;SDS011;6669;42.678;23.332;2023-03-21T12:48:12;4.00;;;3.20;;
13208;SDS011;6669;42.678;23.332;2023-03-21T12:50:45;4.63;;;3.40;;
13208;SDS011;6669;42.678;23.332;2023-03-21T12:53:24;3.33;;;2.90;;
13208;SDS011;6669;42.678;23.332;2023-03-21T12:55:57;5.97;;;3.25;;
13208;SDS011;6669;42.678;23.332;2023-03-21T12:58:29;4.78;;;2.75;;
13208;SDS011;6669;42.678;23.332;2023-03-21T13:01:03;4.80;;;3.15;;
13208;SDS011;6669;42.678;23.332;2023-03-21T13:03:35;3.78;;;3.30;;
13208;SDS011;6669;42.678;23.332;2023-03-21T13:06:08;5.05;;;3.40;;
13208;SDS011;6669;42.678;23.332;2023-03-21T13:08:40;5.60;;;3.17;;
13208;SDS011;6669;42.678;23.332;2023-03-21T13:11:13;4.32;;;3.00;;
13208;SDS011;6669;42.678;23.332;2023-03-21T13:13:45;4.97;;;3.20;;
13208;SDS011;6669;42.678;23.332;2023-03-21T13:16:18;3.67;;;2.90;;
13208;SDS011;6669;42.678;23.332;2023-03-21T13:19:00;3.22;;;2.85;;
13208;SDS011;6669;42.678;23.332;2023-03-21T13:21:41;3.45;;;3.10;;
13208;SDS011;6669;42.678;23.332;2023-03-21T13:24:17;3.92;;;3.40;;
13208;SDS011;6669;42.678;23.332;2023-03-21T13:26:57;3.92;;;3.05;;
13208;SDS011;6669;42.678;23.332;2023-03-21T13:29:33;5.53;;;3.38;;
13208;SDS011;6669;42.678;23.332;2023-03-21T13:32:22;4.88;;;4.10;;
13208;SDS011;6669;42.678;23.332;2023-03-21T13:34:55;4.20;;;3.28;;
13208;SDS011;6669;42.678;23.332;2023-03-21T13:37:26;8.25;;;4.57;;
13208;SDS011;6669;42.678;23.332;2023-03-21T13:39:59;7.13;;;5.07;;
13208;SDS011;6669;42.678;23.332;2023-03-21T13:42:34;6.90;;;4.43;;
13208;SDS011;6669;42.678;23.332;2023-03-21T13:45:11;4.57;;;3.47;;
13208;SDS011;6669;42.678;23.332;2023-03-21T13:47:54;5.00;;;4.03;;
13208;SDS011;6669;42.678;23.332;2023-03-21T13:50:28;4.03;;;3.22;;
13208;SDS011;6669;42.678;23.332;2023-03-21T13:53:18;4.07;;;3.30;;
13208;SDS011;6669;42.678;23.332;2023-03-21T13:56:06;5.75;;;3.15;;
13208;SDS011;6669;42.678;23.332;2023-03-21T13:58:50;8.13;;;4.50;;
13208;SDS011;6669;42.678;23.332;2023-03-21T14:01:26;4.40;;;3.55;;
13208;SDS011;6669;42.678;23.332;2023-03-21T14:04:02;5.15;;;3.30;;
13208;SDS011;6669;42.678;23.332;2023-03-21T14:06:35;4.03;;;3.10;;
13208;SDS011;6669;42.678;23.332;2023-03-21T14:09:10;9.23;;;8.02;;
13208;SDS011;6669;42.678;23.332;2023-03-21T14:11:46;4.30;;;3.47;;
13208;SDS011;6669;42.678;23.332;2023-03-21T14:14:20;7.30;;;5.20;;
13208;SDS011;6669;42.678;23.332;2023-03-21T14:16:51;4.30;;;3.35;;
13208;SDS011;6669;42.678;23.332;2023-03-21T14:19:21;4.85;;;3.65;;
13208;SDS011;6669;42.678;23.332;2023-03-21T14:21:56;4.15;;;3.38;;
13208;SDS011;6669;42.678;23.332;2023-03-21T14:24:30;4.03;;;3.15;;
13208;SDS011;6669;42.678;23.332;2023-03-21T14:26:58;3.80;;;3.50;;
13208;SDS011;6669;42.678;23.332;2023-03-21T14:29:30;4.70;;;3.00;;
13208;SDS011;6669;42.678;23.332;2023-03-21T14:32:00;3.10;;;2.80;;
13208;SDS011;6669;42.678;23.332;2023-03-21T14:34:32;4.72;;;3.28;;
13208;SDS011;6669;42.678;23.332;2023-03-21T14:37:05;5.60;;;3.47;;
13208;SDS011;6669;42.678;23.332;2023-03-21T14:39:33;5.43;;;3.28;;
13208;SDS011;6669;42.678;23.332;2023-03-21T14:42:02;4.18;;;3.28;;
13208;SDS011;6669;42.678;23.332;2023-03-21T14:44:32;4.93;;;3.00;;
13208;SDS011;6669;42.678;23.332;2023-03-21T14:47:20;4.22;;;3.80;;
13208;SDS011;6669;42.678;23.332;2023-03-21T14:49:51;4.57;;;3.35;;
13208;SDS011;6669;42.678;23.332;2023-03-21T14:52:21;4.85;;;3.90;;
13208;SDS011;6669;42.678;23.332;2023-03-21T14:54:51;3.53;;;3.03;;
13208;SDS011;6669;42.678;23.332;2023-03-21T14:57:22;3.97;;;3.40;;
13208;SDS011;6669;42.678;23.332;2023-03-21T14:59:53;3.30;;;3.00;;
13208;SDS011;6669;42.678;23.332;2023-03-21T15:02:24;5.22;;;3.78;;
13208;SDS011;6669;42.678;23.332;2023-03-21T15:05:06;4.95;;;3.55;;
13208;SDS011;6669;42.678;23.332;2023-03-21T15:07:36;3.45;;;3.05;;
13208;SDS011;6669;42.678;23.332;2023-03-21T15:10:05;5.28;;;3.45;;
13208;SDS011;6669;42.678;23.332;2023-03-21T15:12:35;5.03;;;4.10;;
13208;SDS011;6669;42.678;23.332;2023-03-21T15:15:03;3.97;;;3.63;;
13208;SDS011;6669;42.678;23.332;2023-03-21T15:17:32;4.20;;;3.65;;
13208;SDS011;6669;42.678;23.332;2023-03-21T15:20:02;5.05;;;4.53;;
13208;SDS011;6669;42.678;23.332;2023-03-21T15:22:36;6.63;;;4.15;;
13208;SDS011;6669;42.678;23.332;2023-03-21T15:25:10;5.40;;;3.30;;